createdAt,value
2018-04-19T00:00:03.104Z,1031.40
2018-04-19T00:01:02.782Z,1031.36
2018-04-19T00:02:02.628Z,1031.39
2018-04-19T00:03:03.327Z,1031.36
2018-04-19T00:04:03.282Z,1031.33
2018-04-19T00:05:44.711Z,1031.38
2018-04-19T00:06:45.452Z,1031.35
2018-04-19T00:08:07.582Z,1031.34
2018-04-19T00:09:06.163Z,1031.31
2018-04-19T00:10:06.740Z,1031.26
2018-04-19T00:11:06.496Z,1031.25
2018-04-19T00:12:07.262Z,1031.24
2018-04-19T00:13:06.880Z,1031.27
2018-04-19T00:14:27.874Z,1031.25
2018-04-19T00:15:28.054Z,1031.24
2018-04-19T00:16:28.018Z,1031.24
2018-04-19T00:17:27.741Z,1031.23
2018-04-19T00:18:28.763Z,1031.27
2018-04-19T00:19:28.509Z,1031.24
2018-04-19T00:20:28.675Z,1031.26
2018-04-19T00:21:27.870Z,1031.21
2018-04-19T00:22:27.600Z,1031.20
2018-04-19T00:23:48.748Z,1031.16
2018-04-19T00:24:49.509Z,1031.16
2018-04-19T00:25:49.270Z,1031.12
2018-04-19T00:26:49.216Z,1031.17
2018-04-19T00:27:48.964Z,1031.17
2018-04-19T00:28:49.145Z,1031.20
2018-04-19T00:29:50.031Z,1031.18
2018-04-19T00:30:48.762Z,1031.11
2018-04-19T00:31:49.826Z,1031.13
2018-04-19T00:33:10.211Z,1031.14
2018-04-19T00:34:11.360Z,1031.11
2018-04-19T00:35:11.562Z,1031.11
2018-04-19T00:36:10.355Z,1031.10
2018-04-19T00:37:11.362Z,1031.06
2018-04-19T00:38:11.489Z,1031.08
2018-04-19T00:39:10.336Z,1031.05
2018-04-19T00:40:10.953Z,1031.06
2018-04-19T00:41:11.001Z,1031.06
2018-04-19T00:42:10.732Z,1031.06
2018-04-19T00:43:11.076Z,1031.07
2018-04-19T00:44:10.906Z,1031.06
2018-04-19T00:45:31.177Z,1031.04
2018-04-19T00:46:31.996Z,1031.01
2018-04-19T00:47:31.684Z,1031.04
2018-04-19T00:48:31.352Z,1031.01
2018-04-19T00:49:52.925Z,1031.06
2018-04-19T00:50:53.484Z,1031.03
2018-04-19T00:51:53.486Z,1031.04
2018-04-19T00:52:53.131Z,1031.05
2018-04-19T00:53:53.371Z,1031.06
2018-04-19T00:54:53.020Z,1031.04
2018-04-19T00:55:54.119Z,1031.02
2018-04-19T00:56:53.658Z,1031.01
2018-04-19T00:57:53.577Z,1031.00
2018-04-19T00:58:53.406Z,1031.02
2018-04-19T01:00:34.205Z,1030.96
2018-04-19T01:01:55.909Z,1030.95
2018-04-19T01:02:55.703Z,1030.94
2018-04-19T01:04:16.861Z,1030.96
2018-04-19T01:05:17.732Z,1030.91
2018-04-19T01:06:58.533Z,1030.90
2018-04-19T01:07:59.549Z,1030.86
2018-04-19T01:08:59.346Z,1030.86
2018-04-19T01:09:59.212Z,1030.84
2018-04-19T01:10:58.780Z,1030.84
2018-04-19T01:11:58.983Z,1030.84
2018-04-19T01:12:59.095Z,1030.83
2018-04-19T01:13:59.209Z,1030.83
2018-04-19T01:14:58.945Z,1030.82
2018-04-19T01:16:19.720Z,1030.82
2018-04-19T01:17:19.567Z,1030.81
2018-04-19T01:18:19.358Z,1030.83
2018-04-19T01:19:20.906Z,1030.77
2018-04-19T01:20:20.007Z,1030.77
2018-04-19T01:21:19.586Z,1030.78
2018-04-19T01:22:20.025Z,1030.77
2018-04-19T01:23:40.563Z,1030.80
2018-04-19T01:24:41.644Z,1030.80
2018-04-19T01:26:02.219Z,1030.76
2018-04-19T01:27:02.897Z,1030.74
2018-04-19T01:28:02.877Z,1030.75
2018-04-19T01:29:02.555Z,1030.74
2018-04-19T01:30:23.151Z,1030.75
2018-04-19T01:31:24.200Z,1030.77
2018-04-19T01:32:24.343Z,1030.75
2018-04-19T01:33:23.592Z,1030.72
2018-04-19T01:34:23.819Z,1030.72
2018-04-19T01:35:23.975Z,1030.74
2018-04-19T01:36:23.545Z,1030.73
2018-04-19T01:37:23.436Z,1030.72
2018-04-19T01:38:23.388Z,1030.75
2018-04-19T01:39:23.949Z,1030.78
2018-04-19T01:40:23.663Z,1030.77
2018-04-19T01:41:23.687Z,1030.80
2018-04-19T01:42:23.624Z,1030.75
2018-04-19T01:43:44.196Z,1030.80
2018-04-19T01:44:44.994Z,1030.76
2018-04-19T01:45:45.031Z,1030.77
2018-04-19T01:46:45.076Z,1030.75
2018-04-19T01:47:45.093Z,1030.77
2018-04-19T01:48:44.885Z,1030.70
2018-04-19T01:49:44.843Z,1030.75
2018-04-19T01:50:44.776Z,1030.73
2018-04-19T01:51:44.716Z,1030.74
2018-04-19T01:52:44.600Z,1030.75
2018-04-19T01:53:44.850Z,1030.78
2018-04-19T01:54:44.576Z,1030.75
2018-04-19T01:55:44.073Z,1030.76
2018-04-19T01:56:45.124Z,1030.75
2018-04-19T01:57:45.133Z,1030.73
2018-04-19T01:58:45.118Z,1030.72
2018-04-19T02:00:05.310Z,1030.71
2018-04-19T02:01:06.448Z,1030.70
2018-04-19T02:02:06.232Z,1030.70
2018-04-19T02:03:06.173Z,1030.69
2018-04-19T02:04:05.908Z,1030.68
2018-04-19T02:05:05.662Z,1030.67
2018-04-19T02:06:05.680Z,1030.65
2018-04-19T02:07:05.419Z,1030.65
2018-04-19T02:08:06.365Z,1030.63
2018-04-19T02:09:06.214Z,1030.62
2018-04-19T02:10:06.310Z,1030.62
2018-04-19T02:11:06.290Z,1030.59
2018-04-19T02:12:05.968Z,1030.61
2018-04-19T02:13:05.669Z,1030.63
2018-04-19T02:14:05.367Z,1030.59
2018-04-19T02:15:06.006Z,1030.62
2018-04-19T02:16:26.456Z,1030.57
2018-04-19T02:17:47.920Z,1030.59
2018-04-19T02:18:48.789Z,1030.56
2018-04-19T02:19:48.811Z,1030.57
2018-04-19T02:20:48.487Z,1030.52
2018-04-19T02:21:48.291Z,1030.51
2018-04-19T02:22:48.431Z,1030.53
2018-04-19T02:23:48.353Z,1030.52
2018-04-19T02:25:09.157Z,1030.52
2018-04-19T02:26:08.845Z,1030.48
2018-04-19T02:27:09.917Z,1030.40
2018-04-19T02:28:30.182Z,1030.47
2018-04-19T02:29:30.701Z,1030.43
2018-04-19T02:30:30.671Z,1030.45
2018-04-19T02:31:31.132Z,1030.45
2018-04-19T02:32:31.137Z,1030.41
2018-04-19T02:33:30.272Z,1030.42
2018-04-19T02:34:30.195Z,1030.41
2018-04-19T02:35:31.468Z,1030.41
2018-04-19T02:36:30.136Z,1030.42
2018-04-19T02:37:30.784Z,1030.41
2018-04-19T02:38:30.497Z,1030.42
2018-04-19T02:39:30.163Z,1030.39
2018-04-19T02:40:30.710Z,1030.39
2018-04-19T02:41:38.172Z,1030.35
2018-04-19T02:42:32.229Z,1030.36
2018-04-19T02:43:31.451Z,1030.33
2018-04-19T02:44:30.286Z,1030.34
2018-04-19T02:45:53.317Z,1030.33
2018-04-19T02:46:51.904Z,1030.34
2018-04-19T02:47:52.149Z,1030.33
2018-04-19T02:48:50.840Z,1030.34
2018-04-19T02:49:51.054Z,1030.31
2018-04-19T02:50:50.739Z,1030.30
2018-04-19T02:51:51.219Z,1030.34
2018-04-19T02:52:51.002Z,1030.29
2018-04-19T02:53:51.048Z,1030.32
2018-04-19T02:54:50.894Z,1030.35
2018-04-19T02:55:50.576Z,1030.35
2018-04-19T02:56:51.150Z,1030.32
2018-04-19T02:57:51.071Z,1030.35
2018-04-19T02:58:50.978Z,1030.35
2018-04-19T02:59:50.805Z,1030.32
2018-04-19T03:00:50.493Z,1030.26
2018-04-19T03:02:12.296Z,1030.28
2018-04-19T03:03:12.044Z,1030.26
2018-04-19T03:04:12.648Z,1030.26
2018-04-19T03:05:12.557Z,1030.27
2018-04-19T03:06:32.530Z,1030.25
2018-04-19T03:07:32.958Z,1030.25
2018-04-19T03:08:32.680Z,1030.24
2018-04-19T03:09:54.112Z,1030.22
2018-04-19T03:10:54.191Z,1030.22
2018-04-19T03:11:54.685Z,1030.18
2018-04-19T03:12:54.433Z,1030.19
2018-04-19T03:13:54.096Z,1030.14
2018-04-19T03:15:35.150Z,1030.14
2018-04-19T03:16:34.767Z,1030.11
2018-04-19T03:17:36.014Z,1030.16
2018-04-19T03:18:36.499Z,1030.13
2018-04-19T03:19:35.535Z,1030.13
2018-04-19T03:20:35.127Z,1030.14
2018-04-19T03:21:55.559Z,1030.08
2018-04-19T03:23:16.583Z,1030.07
2018-04-19T03:24:17.467Z,1030.03
2018-04-19T03:25:37.640Z,1030.03
2018-04-19T03:26:38.827Z,1030.03
2018-04-19T03:27:38.734Z,1030.02
2018-04-19T03:28:38.378Z,1030.02
2018-04-19T03:29:38.448Z,1030.03
2018-04-19T03:30:38.341Z,1030.02
2018-04-19T03:31:38.020Z,1030.03
2018-04-19T03:32:58.520Z,1030.00
2018-04-19T03:33:59.217Z,1029.99
2018-04-19T03:35:00.288Z,1030.04
2018-04-19T03:35:59.174Z,1030.01
2018-04-19T03:36:58.744Z,1030.00
2018-04-19T03:37:59.741Z,1030.00
2018-04-19T03:38:59.337Z,1030.03
2018-04-19T03:39:59.353Z,1030.04
2018-04-19T03:41:19.146Z,1030.05
2018-04-19T03:42:19.832Z,1030.04
2018-04-19T03:43:19.407Z,1030.07
2018-04-19T03:44:40.408Z,1030.06
2018-04-19T03:45:41.269Z,1030.02
2018-04-19T03:46:40.833Z,1030.02
2018-04-19T03:47:40.691Z,1029.99
2018-04-19T03:49:02.396Z,1030.00
2018-04-19T03:50:43.382Z,1029.99
2018-04-19T03:51:44.818Z,1029.99
2018-04-19T03:52:43.903Z,1029.96
2018-04-19T03:53:43.340Z,1030.03
2018-04-19T03:54:45.389Z,1030.02
2018-04-19T03:55:44.824Z,1030.03
2018-04-19T03:56:44.950Z,1030.06
2018-04-19T03:57:43.985Z,1030.03
2018-04-19T03:58:43.950Z,1030.02
2018-04-19T03:59:44.021Z,1030.05
2018-04-19T04:01:04.452Z,1029.99
2018-04-19T04:02:05.366Z,1030.02
2018-04-19T04:03:46.265Z,1030.04
2018-04-19T04:04:47.072Z,1030.02
2018-04-19T04:05:46.981Z,1029.98
2018-04-19T04:06:45.729Z,1029.98
2018-04-19T04:07:47.302Z,1029.97
2018-04-19T04:08:46.233Z,1030.00
2018-04-19T04:09:46.362Z,1029.99
2018-04-19T04:10:46.146Z,1029.96
2018-04-19T04:11:46.084Z,1029.94
2018-04-19T04:13:06.655Z,1029.92
2018-04-19T04:14:06.389Z,1029.90
2018-04-19T04:15:07.201Z,1029.90
2018-04-19T04:16:48.364Z,1029.87
2018-04-19T04:17:58.435Z,1029.87
2018-04-19T04:18:49.360Z,1029.90
2018-04-19T04:20:29.558Z,1029.89
2018-04-19T04:21:30.223Z,1029.91
2018-04-19T04:22:50.951Z,1029.88
2018-04-19T04:24:11.507Z,1029.93
2018-04-19T04:25:12.522Z,1029.90
2018-04-19T04:26:11.633Z,1029.88
2018-04-19T04:27:32.260Z,1029.91
2018-04-19T04:28:32.395Z,1029.87
2018-04-19T04:29:32.150Z,1029.88
2018-04-19T04:30:31.878Z,1029.89
2018-04-19T04:31:32.878Z,1029.91
2018-04-19T04:32:33.579Z,1029.90
2018-04-19T04:33:33.291Z,1029.94
2018-04-19T04:35:34.433Z,1029.95
2018-04-19T04:36:35.503Z,1029.95
2018-04-19T04:37:35.739Z,1029.91
2018-04-19T04:38:34.545Z,1029.96
2018-04-19T04:39:34.890Z,1030.00
2018-04-19T04:40:34.724Z,1029.91
2018-04-19T04:41:34.855Z,1029.94
2018-04-19T04:42:34.977Z,1029.96
2018-04-19T04:43:34.717Z,1029.98
2018-04-19T04:44:34.481Z,1029.96
2018-04-19T04:45:35.629Z,1029.97
2018-04-19T04:46:34.398Z,1029.99
2018-04-19T04:47:55.916Z,1030.00
2018-04-19T04:48:56.634Z,1029.97
2018-04-19T04:49:56.704Z,1030.03
2018-04-19T04:50:56.533Z,1030.02
2018-04-19T04:51:56.893Z,1030.02
2018-04-19T04:52:57.125Z,1030.01
2018-04-19T04:53:56.278Z,1030.01
2018-04-19T04:54:56.187Z,1029.99
2018-04-19T04:55:56.226Z,1030.01
2018-04-19T04:56:57.022Z,1029.98
2018-04-19T04:57:56.831Z,1029.97
2018-04-19T04:58:57.396Z,1029.97
2018-04-19T04:59:56.969Z,1030.01
2018-04-19T05:00:57.359Z,1030.02
2018-04-19T05:01:56.220Z,1030.03
2018-04-19T05:02:56.695Z,1030.05
2018-04-19T05:03:56.508Z,1030.04
2018-04-19T05:04:56.401Z,1030.05
2018-04-19T05:05:56.155Z,1030.05
2018-04-19T05:06:56.055Z,1030.06
2018-04-19T05:07:57.208Z,1030.09
2018-04-19T05:08:56.686Z,1030.01
2018-04-19T05:09:56.473Z,1030.01
2018-04-19T05:10:56.820Z,1030.03
2018-04-19T05:12:17.807Z,1030.04
2018-04-19T05:13:18.640Z,1030.05
2018-04-19T05:14:18.583Z,1030.06
2018-04-19T05:15:18.475Z,1030.06
2018-04-19T05:16:18.418Z,1030.07
2018-04-19T05:17:38.998Z,1030.08
2018-04-19T05:19:00.834Z,1030.09
2018-04-19T05:20:01.727Z,1030.06
2018-04-19T05:21:03.862Z,1029.97
2018-04-19T05:22:01.377Z,1030.02
2018-04-19T05:23:01.329Z,1030.05
2018-04-19T05:24:01.271Z,1030.04
2018-04-19T05:25:01.601Z,1030.07
2018-04-19T05:26:02.170Z,1030.07
2018-04-19T05:27:43.118Z,1030.11
2018-04-19T05:28:43.128Z,1030.10
2018-04-19T05:29:42.776Z,1030.08
2018-04-19T05:30:43.890Z,1030.08
2018-04-19T05:31:42.905Z,1030.10
2018-04-19T05:32:44.015Z,1030.08
2018-04-19T05:33:43.243Z,1030.08
2018-04-19T05:34:42.942Z,1030.07
2018-04-19T05:35:43.538Z,1030.06
2018-04-19T05:36:43.757Z,1030.10
2018-04-19T05:37:43.702Z,1030.13
2018-04-19T05:38:43.833Z,1030.12
2018-04-19T05:39:43.612Z,1030.11
2018-04-19T05:40:43.474Z,1030.10
2018-04-19T05:41:43.317Z,1030.11
2018-04-19T05:42:43.602Z,1030.08
2018-04-19T05:44:04.656Z,1030.09
2018-04-19T05:45:05.939Z,1030.08
2018-04-19T05:46:04.860Z,1030.05
2018-04-19T05:47:05.033Z,1030.07
2018-04-19T05:48:49.501Z,1030.06
2018-04-19T05:49:51.682Z,1030.05
2018-04-19T05:50:49.902Z,1030.08
2018-04-19T05:51:49.922Z,1030.07
2018-04-19T05:53:10.720Z,1030.08
2018-04-19T05:54:11.104Z,1030.08
2018-04-19T05:55:32.899Z,1030.10
2018-04-19T05:56:32.997Z,1030.08
2018-04-19T05:57:54.673Z,1030.06
2018-04-19T05:58:54.806Z,1030.01
2018-04-19T05:59:54.584Z,1030.05
2018-04-19T06:00:54.692Z,1030.06
2018-04-19T06:01:54.616Z,1030.05
2018-04-19T06:02:54.462Z,1030.06
2018-04-19T06:04:15.863Z,1030.09
2018-04-19T06:05:16.469Z,1030.08
2018-04-19T06:06:43.033Z,1030.12
2018-04-19T06:07:40.792Z,1030.10
2018-04-19T06:08:40.632Z,1030.09
2018-04-19T06:09:41.799Z,1030.10
2018-04-19T06:11:03.086Z,1030.09
2018-04-19T06:12:03.617Z,1030.08
2018-04-19T06:13:03.281Z,1030.07
2018-04-19T06:14:03.077Z,1030.10
2018-04-19T06:15:24.407Z,1030.15
2018-04-19T06:16:25.579Z,1030.13
2018-04-19T06:17:25.644Z,1030.10
2018-04-19T06:18:24.780Z,1030.11
2018-04-19T06:19:24.624Z,1030.11
2018-04-19T06:20:24.810Z,1030.11
2018-04-19T06:21:24.883Z,1030.13
2018-04-19T06:22:24.774Z,1030.08
2018-04-19T06:23:24.937Z,1030.10
2018-04-19T06:24:46.079Z,1030.10
2018-04-19T06:26:28.434Z,1030.11
2018-04-19T06:27:28.650Z,1030.10
2018-04-19T06:28:48.958Z,1030.11
2018-04-19T06:29:49.793Z,1030.09
2018-04-19T06:30:50.135Z,1030.10
2018-04-19T06:31:49.054Z,1030.12
2018-04-19T06:32:49.299Z,1030.09
2018-04-19T06:33:49.187Z,1030.13
2018-04-19T06:34:49.074Z,1030.08
2018-04-19T06:36:09.499Z,1030.15
2018-04-19T06:37:31.349Z,1030.13
2018-04-19T06:39:13.210Z,1030.09
2018-04-19T06:40:13.883Z,1030.08
2018-04-19T06:41:13.721Z,1030.02
2018-04-19T06:42:13.809Z,1030.03
2018-04-19T06:43:14.130Z,1030.04
2018-04-19T06:44:13.883Z,1030.06
2018-04-19T06:45:34.357Z,1030.03
2018-04-19T06:46:35.579Z,1030.03
2018-04-19T06:47:34.416Z,1030.02
2018-04-19T06:48:35.229Z,1030.02
2018-04-19T06:49:35.214Z,1030.01
2018-04-19T06:50:34.989Z,1030.01
2018-04-19T06:51:35.300Z,1030.01
2018-04-19T06:52:35.614Z,1030.05
2018-04-19T06:53:34.782Z,1030.06
2018-04-19T06:54:34.737Z,1030.08
2018-04-19T06:55:35.099Z,1030.05
2018-04-19T06:56:35.029Z,1030.03
2018-04-19T06:57:35.213Z,1030.12
2018-04-19T06:58:35.470Z,1030.07
2018-04-19T06:59:34.847Z,1030.05
2018-04-19T07:00:35.174Z,1030.09
2018-04-19T07:01:35.294Z,1030.06
2018-04-19T07:02:35.181Z,1030.10
2018-04-19T07:03:35.195Z,1030.12
2018-04-19T07:04:34.893Z,1030.13
2018-04-19T07:05:35.135Z,1030.06
2018-04-19T07:06:35.997Z,1030.10
2018-04-19T07:07:37.313Z,1030.12
2018-04-19T07:08:35.084Z,1030.11
2018-04-19T07:09:35.016Z,1030.09
2018-04-19T07:10:34.996Z,1030.08
2018-04-19T07:11:35.197Z,1030.07
2018-04-19T07:12:35.535Z,1030.07
2018-04-19T07:13:34.974Z,1030.05
2018-04-19T07:14:36.460Z,1030.03
2018-04-19T07:15:34.622Z,1030.07
2018-04-19T07:16:34.878Z,1030.06
2018-04-19T07:17:35.054Z,1030.05
2018-04-19T07:18:35.175Z,1030.08
2018-04-19T07:19:35.487Z,1030.04
2018-04-19T07:20:34.775Z,1030.05
2018-04-19T07:21:56.058Z,1030.00
2018-04-19T07:23:17.142Z,1030.02
2018-04-19T07:24:16.974Z,1029.98
2018-04-19T07:25:16.958Z,1029.99
2018-04-19T07:26:17.831Z,1029.97
2018-04-19T07:27:17.714Z,1029.98
2018-04-19T07:28:17.585Z,1029.96
2018-04-19T07:29:17.442Z,1029.93
2018-04-19T07:30:17.682Z,1029.94
2018-04-19T07:31:17.915Z,1029.91
2018-04-19T07:32:17.650Z,1029.93
2018-04-19T07:33:17.621Z,1029.90
2018-04-19T07:34:18.107Z,1029.92
2018-04-19T07:35:17.778Z,1029.92
2018-04-19T07:36:18.224Z,1029.95
2018-04-19T07:37:17.070Z,1029.94
2018-04-19T07:38:17.510Z,1029.91
2018-04-19T07:39:20.273Z,1029.92
2018-04-19T07:40:17.587Z,1029.90
2018-04-19T07:41:59.670Z,1029.88
2018-04-19T07:44:03.224Z,1029.90
2018-04-19T07:45:04.157Z,1029.80
2018-04-19T07:46:04.045Z,1029.83
2018-04-19T07:47:04.131Z,1029.82
2018-04-19T07:48:04.107Z,1029.82
2018-04-19T07:49:04.523Z,1029.76
2018-04-19T07:50:03.753Z,1029.77
2018-04-19T07:51:03.641Z,1029.79
2018-04-19T07:52:04.075Z,1029.76
2018-04-19T07:53:24.778Z,1029.80
2018-04-19T07:54:25.624Z,1029.79
2018-04-19T07:55:25.791Z,1029.78
2018-04-19T07:56:26.002Z,1029.78
2018-04-19T07:57:25.168Z,1029.80
2018-04-19T07:58:24.902Z,1029.80
2018-04-19T07:59:25.992Z,1029.83
2018-04-19T08:00:24.796Z,1029.81
2018-04-19T08:01:25.720Z,1029.83
2018-04-19T08:02:25.651Z,1029.85
2018-04-19T08:03:25.884Z,1029.85
2018-04-19T08:05:06.892Z,1029.87
2018-04-19T08:06:07.974Z,1029.65
2018-04-19T08:07:06.894Z,1029.85
2018-04-19T08:08:27.460Z,1029.80
2018-04-19T08:09:28.322Z,1029.83
2018-04-19T08:10:28.687Z,1029.85
2018-04-19T08:11:28.799Z,1029.82
2018-04-19T08:12:28.095Z,1029.81
2018-04-19T08:13:27.913Z,1029.87
2018-04-19T08:14:28.150Z,1029.85
2018-04-19T08:15:27.827Z,1029.80
2018-04-19T08:16:27.954Z,1029.81
2018-04-19T08:17:28.064Z,1029.80
2018-04-19T08:18:28.127Z,1029.79
2018-04-19T08:19:29.136Z,1029.84
2018-04-19T08:20:28.056Z,1029.80
2018-04-19T08:21:28.434Z,1029.75
2018-04-19T08:22:49.177Z,1029.78
2018-04-19T08:23:50.213Z,1029.80
2018-04-19T08:24:50.401Z,1029.79
2018-04-19T08:25:49.210Z,1029.84
2018-04-19T08:27:11.784Z,1029.80
2018-04-19T08:28:12.064Z,1029.85
2018-04-19T08:29:33.050Z,1029.83
2018-04-19T08:30:32.987Z,1029.82
2018-04-19T08:31:33.192Z,1029.79
2018-04-19T08:32:33.027Z,1029.79
2018-04-19T08:33:33.236Z,1029.80
2018-04-19T08:34:54.733Z,1029.79
2018-04-19T08:35:55.274Z,1029.81
2018-04-19T08:36:55.379Z,1029.79
2018-04-19T08:38:15.252Z,1029.81
2018-04-19T08:39:16.434Z,1029.76
2018-04-19T08:40:15.312Z,1029.77
2018-04-19T08:41:15.289Z,1029.76
2018-04-19T08:42:16.485Z,1029.85
2018-04-19T08:43:35.944Z,1029.81
2018-04-19T08:44:37.147Z,1029.78
2018-04-19T08:45:35.977Z,1029.75
2018-04-19T08:46:36.928Z,1029.77
2018-04-19T08:47:37.074Z,1029.79
2018-04-19T08:48:36.862Z,1029.79
2018-04-19T08:49:37.023Z,1029.80
2018-04-19T08:50:37.371Z,1029.79
2018-04-19T08:51:36.613Z,1029.80
2018-04-19T08:52:36.705Z,1029.83
2018-04-19T08:53:36.538Z,1029.80
2018-04-19T08:54:36.367Z,1029.81
2018-04-19T08:55:36.229Z,1029.80
2018-04-19T08:56:36.868Z,1029.76
2018-04-19T08:57:36.745Z,1029.73
2018-04-19T08:58:36.614Z,1029.73
2018-04-19T08:59:36.412Z,1029.72
2018-04-19T09:00:36.291Z,1029.71
2018-04-19T09:01:36.442Z,1029.74
2018-04-19T09:02:36.578Z,1029.70
2018-04-19T09:03:36.369Z,1029.69
2018-04-19T09:04:36.531Z,1029.68
2018-04-19T09:05:36.670Z,1029.67
2018-04-19T09:06:36.557Z,1029.65
2018-04-19T09:07:36.627Z,1029.64
2018-04-19T09:08:36.289Z,1029.61
2018-04-19T09:09:57.222Z,1029.64
2018-04-19T09:10:58.479Z,1029.64
2018-04-19T09:13:00.005Z,1029.59
2018-04-19T09:13:59.704Z,1029.58
2018-04-19T09:14:59.456Z,1029.58
2018-04-19T09:16:00.969Z,1029.57
2018-04-19T09:17:20.324Z,1029.60
2018-04-19T09:18:21.339Z,1029.62
2018-04-19T09:19:41.985Z,1029.57
2018-04-19T09:20:42.110Z,1029.61
2018-04-19T09:21:42.228Z,1029.62
2018-04-19T09:22:42.072Z,1029.61
2018-04-19T09:23:41.735Z,1029.65
2018-04-19T09:24:42.767Z,1029.65
2018-04-19T09:25:42.097Z,1029.63
2018-04-19T09:27:03.066Z,1029.62
2018-04-19T09:28:02.983Z,1029.62
2018-04-19T09:29:03.057Z,1029.63
2018-04-19T09:30:03.307Z,1029.62
2018-04-19T09:31:03.078Z,1029.64
2018-04-19T09:32:02.883Z,1029.59
2018-04-19T09:33:03.975Z,1029.62
2018-04-19T09:34:45.861Z,1029.61
2018-04-19T09:35:46.751Z,1029.60
2018-04-19T09:37:29.116Z,1029.59
2018-04-19T09:38:28.960Z,1029.56
2018-04-19T09:39:50.195Z,1029.57
2018-04-19T09:40:50.290Z,1029.56
2018-04-19T09:41:50.533Z,1029.49
2018-04-19T09:42:50.721Z,1029.52
2018-04-19T09:43:50.968Z,1029.55
2018-04-19T09:44:49.817Z,1029.53
2018-04-19T09:45:51.017Z,1029.52
2018-04-19T09:46:51.171Z,1029.50
2018-04-19T09:47:50.024Z,1029.54
2018-04-19T09:48:49.785Z,1029.49
2018-04-19T09:49:51.023Z,1029.49
2018-04-19T09:50:49.846Z,1029.50
2018-04-19T09:52:12.598Z,1029.53
2018-04-19T09:53:12.440Z,1029.47
2018-04-19T09:54:12.190Z,1029.45
2018-04-19T09:55:11.933Z,1029.48
2018-04-19T09:56:12.140Z,1029.46
2018-04-19T09:57:12.011Z,1029.44
2018-04-19T09:58:11.892Z,1029.45
2018-04-19T10:00:14.717Z,1029.46
2018-04-19T10:01:14.607Z,1029.41
2018-04-19T10:02:15.590Z,1029.43
2018-04-19T10:03:14.357Z,1029.42
2018-04-19T10:04:15.067Z,1029.40
2018-04-19T10:05:14.705Z,1029.40
2018-04-19T10:06:14.991Z,1029.43
2018-04-19T10:07:15.052Z,1029.41
2018-04-19T10:08:15.135Z,1029.40
2018-04-19T10:09:15.116Z,1029.42
2018-04-19T10:10:15.427Z,1029.43
2018-04-19T10:11:15.881Z,1029.40
2018-04-19T10:12:15.031Z,1029.39
2018-04-19T10:13:15.188Z,1029.44
2018-04-19T10:14:14.880Z,1029.42
2018-04-19T10:15:15.110Z,1029.41
2018-04-19T10:16:15.261Z,1029.38
2018-04-19T10:17:16.035Z,1029.43
2018-04-19T10:18:57.338Z,1029.38
2018-04-19T10:19:57.219Z,1029.41
2018-04-19T10:20:56.981Z,1029.43
2018-04-19T10:22:39.632Z,1029.48
2018-04-19T10:23:40.761Z,1029.44
2018-04-19T10:24:59.329Z,1029.42
2018-04-19T10:26:00.300Z,1029.37
2018-04-19T10:27:00.460Z,1029.34
2018-04-19T10:28:00.231Z,1029.31
2018-04-19T10:29:00.172Z,1029.30
2018-04-19T10:29:59.972Z,1029.33
2018-04-19T10:30:59.695Z,1029.29
2018-04-19T10:32:00.740Z,1029.30
2018-04-19T10:32:59.729Z,1029.28
2018-04-19T10:34:20.239Z,1029.28
2018-04-19T10:35:45.362Z,1029.27
2018-04-19T10:36:46.107Z,1029.26
2018-04-19T10:37:45.963Z,1029.22
2018-04-19T10:38:47.529Z,1029.24
2018-04-19T10:39:46.191Z,1029.24
2018-04-19T10:40:46.005Z,1029.28
2018-04-19T10:41:46.566Z,1029.27
2018-04-19T10:42:46.284Z,1029.22
2018-04-19T10:43:46.440Z,1029.19
2018-04-19T10:44:46.211Z,1029.24
2018-04-19T10:45:46.524Z,1029.23
2018-04-19T10:46:45.283Z,1029.23
2018-04-19T10:47:46.810Z,1029.15
2018-04-19T10:48:46.602Z,1029.19
2018-04-19T10:49:45.752Z,1029.18
2018-04-19T10:50:45.991Z,1029.18
2018-04-19T10:51:45.778Z,1029.14
2018-04-19T10:53:26.973Z,1029.15
2018-04-19T10:54:28.233Z,1029.12
2018-04-19T10:55:27.308Z,1029.11
2018-04-19T10:56:27.025Z,1029.12
2018-04-19T10:57:27.939Z,1029.10
2018-04-19T10:58:28.188Z,1029.09
2018-04-19T10:59:27.611Z,1029.09
2018-04-19T11:00:27.323Z,1029.10
2018-04-19T11:01:27.580Z,1029.06
2018-04-19T11:02:27.501Z,1029.07
2018-04-19T11:03:27.446Z,1029.10
2018-04-19T11:04:27.793Z,1029.09
2018-04-19T11:05:27.562Z,1029.09
2018-04-19T11:06:27.647Z,1029.15
2018-04-19T11:07:27.519Z,1029.14
2018-04-19T11:08:27.387Z,1029.11
2018-04-19T11:09:27.191Z,1029.09
2018-04-19T11:10:48.718Z,1029.02
2018-04-19T11:12:09.309Z,1029.01
2018-04-19T11:13:10.158Z,1029.03
2018-04-19T11:14:10.250Z,1029.02
2018-04-19T11:15:10.490Z,1028.98
2018-04-19T11:16:09.929Z,1029.04
2018-04-19T11:17:10.436Z,1029.03
2018-04-19T11:18:10.304Z,1028.98
2018-04-19T11:19:10.197Z,1029.01
2018-04-19T11:20:31.598Z,1028.99
2018-04-19T11:21:52.604Z,1028.96
2018-04-19T11:23:13.780Z,1028.98
2018-04-19T11:24:34.507Z,1028.97
2018-04-19T11:25:35.597Z,1028.96
2018-04-19T11:26:39.311Z,1028.91
2018-04-19T11:27:36.819Z,1028.96
2018-04-19T11:28:55.149Z,1028.90
2018-04-19T11:30:17.604Z,1028.89
2018-04-19T11:31:17.719Z,1028.94
2018-04-19T11:32:17.659Z,1028.91
2018-04-19T11:33:17.928Z,1028.90
2018-04-19T11:34:18.325Z,1028.94
2018-04-19T11:35:18.083Z,1028.90
2018-04-19T11:36:17.812Z,1028.90
2018-04-19T11:37:18.850Z,1028.91
2018-04-19T11:38:17.644Z,1028.88
2018-04-19T11:39:17.842Z,1028.86
2018-04-19T11:40:38.717Z,1028.85
2018-04-19T11:41:59.445Z,1028.78
2018-04-19T11:42:59.758Z,1028.81
2018-04-19T11:44:20.489Z,1028.81
2018-04-19T11:45:20.630Z,1028.80
2018-04-19T11:46:20.856Z,1028.76
2018-04-19T11:47:42.065Z,1028.75
2018-04-19T11:49:23.341Z,1028.74
2018-04-19T11:51:04.082Z,1028.73
2018-04-19T11:52:05.310Z,1028.73
2018-04-19T11:53:24.824Z,1028.66
2018-04-19T11:54:25.678Z,1028.67
2018-04-19T11:55:25.489Z,1028.65
2018-04-19T11:56:46.102Z,1028.64
2018-04-19T11:57:46.836Z,1028.64
2018-04-19T11:59:07.229Z,1028.65
2018-04-19T12:00:08.389Z,1028.71
2018-04-19T12:01:28.650Z,1028.70
2018-04-19T12:02:29.661Z,1028.71
2018-04-19T12:04:10.372Z,1028.70
2018-04-19T12:05:11.584Z,1028.72
2018-04-19T12:06:10.382Z,1028.72
2018-04-19T12:07:31.893Z,1028.70
2018-04-19T12:08:33.732Z,1028.65
2018-04-19T12:09:32.895Z,1028.69
2018-04-19T12:10:33.281Z,1028.66
2018-04-19T12:11:32.601Z,1028.66
2018-04-19T12:12:32.742Z,1028.74
2018-04-19T12:14:14.324Z,1028.68
2018-04-19T12:15:14.147Z,1028.65
2018-04-19T12:16:15.430Z,1028.69
2018-04-19T12:17:14.091Z,1028.64
2018-04-19T12:18:15.771Z,1028.65
2018-04-19T12:19:36.358Z,1028.63
2018-04-19T12:20:37.200Z,1028.62
2018-04-19T12:21:36.020Z,1028.60
2018-04-19T12:22:58.009Z,1028.66
2018-04-19T12:24:19.337Z,1028.67
2018-04-19T12:25:19.387Z,1028.65
2018-04-19T12:26:19.836Z,1028.61
2018-04-19T12:27:20.206Z,1028.58
2018-04-19T12:28:20.003Z,1028.59
2018-04-19T12:29:25.580Z,1028.55
2018-04-19T12:30:20.033Z,1028.57
2018-04-19T12:31:42.933Z,1028.57
2018-04-19T12:32:43.118Z,1028.56
2018-04-19T12:33:42.158Z,1028.62
2018-04-19T12:34:42.333Z,1028.64
2018-04-19T12:35:42.958Z,1028.64
2018-04-19T12:37:05.549Z,1028.65
2018-04-19T12:38:06.544Z,1028.61
2018-04-19T12:39:49.278Z,1028.62
2018-04-19T12:40:53.415Z,1028.58
2018-04-19T12:41:51.152Z,1028.58
2018-04-19T12:42:50.001Z,1028.55
2018-04-19T12:43:49.915Z,1028.56
2018-04-19T12:44:50.861Z,1028.60
2018-04-19T12:45:54.822Z,1028.62
2018-04-19T12:46:50.553Z,1028.57
2018-04-19T12:47:50.718Z,1028.53
2018-04-19T12:48:51.834Z,1028.52
2018-04-19T12:50:14.070Z,1028.47
2018-04-19T12:51:11.915Z,1028.48
2018-04-19T12:52:32.914Z,1028.48
2018-04-19T12:53:33.164Z,1028.42
2018-04-19T12:54:53.939Z,1028.46
2018-04-19T12:56:14.500Z,1028.42
2018-04-19T12:57:15.334Z,1028.41
2018-04-19T12:58:36.034Z,1028.42
2018-04-19T12:59:37.278Z,1028.42
2018-04-19T13:00:36.933Z,1028.44